^^
Station Historical Data
Daily Summary for February 9, 2017 Units:  English    Metric   Both
« Previous Day
Next Day »
Daily Weekly Monthly Yearly Custom
  High: Low: Average:
Temperature: 39.3 °F 19.0 °F 26.7 °F
Dew Point: 31.1 °F 4.8 °F 18.7 °F
Humidity: 93 % 51 % 72 %
Wind Speed: 23.1 mph 0.0 mph 8.2 mph
Wind Gust: 27.6 mph - -
Wind:- - SW
Pressure: 30.15 in 29.59 in -
Precipitation: 0.03 in    
Historical Graphs
 
 
Tabular Data for February 9, 2017
Time Temperature Dew Point Pressure Wind Wind Speed Wind Gust Humidity Rainfall Rate (Hourly) solar Conditions
00:03 39.0 °F 31.1 °F 29.68 in NE 0.9 mph 4.0 mph 73 % 0.00 in 0.0 W/m2 RA
00:08 39.0 °F 30.7 °F 29.69 in ENE 2.9 mph 5.8 mph 72 % 0.00 in 0.0 W/m2 RA
00:13 39.1 °F 30.8 °F 29.69 in East 1.3 mph 3.5 mph 72 % 0.00 in 0.0 W/m2 CLR
00:18 39.2 °F 30.9 °F 29.68 in ENE 2.2 mph 3.5 mph 72 % 0.00 in 0.0 W/m2 CLR
00:23 39.2 °F 30.9 °F 29.68 in NE 0.6 mph 8.1 mph 72 % 0.00 in 0.0 W/m2 CLR
00:28 39.3 °F 31.0 °F 29.67 in East 3.4 mph 4.6 mph 72 % 0.00 in 0.0 W/m2 CLR
00:33 39.2 °F 30.9 °F 29.66 in East 5.4 mph 9.2 mph 72 % 0.00 in 0.0 W/m2 CLR
00:38 39.2 °F 30.9 °F 29.67 in East 1.6 mph 3.5 mph 72 % 0.00 in 0.0 W/m2 CLR
00:43 39.2 °F 30.6 °F 29.66 in ENE 2.0 mph 4.0 mph 71 % 0.00 in 0.0 W/m2 CLR
00:48 39.2 °F 30.6 °F 29.66 in NE 2.5 mph 5.0 mph 71 % 0.00 in 0.0 W/m2 CLR
00:53 39.2 °F 30.6 °F 29.67 in Calm     71 % 0.00 in 0.0 W/m2 CLR
00:58 39.3 °F 30.7 °F 29.68 in North 0.9 mph 8.0 mph 71 % 0.00 in 0.0 W/m2 CLR
01:03 39.3 °F 30.7 °F 29.67 in NNE 0.9 mph 5.8 mph 71 % 0.00 in 0.0 W/m2 CLR
01:08 39.2 °F 30.6 °F 29.66 in NNE 6.5 mph 8.1 mph 71 % 0.00 in 0.0 W/m2 CLR
01:13 39.2 °F 30.6 °F 29.66 in NNE 5.6 mph 8.1 mph 71 % 0.00 in 0.0 W/m2 CLR
01:18 39.1 °F 30.5 °F 29.63 in NNE 10.0 mph 14.0 mph 71 % 0.00 in 0.0 W/m2 CLR
01:23 38.9 °F 30.3 °F 29.61 in NE 7.2 mph 13.8 mph 71 % 0.00 in 0.0 W/m2 CLR
01:28 38.6 °F 30.4 °F 29.62 in NE 7.3 mph 12.7 mph 72 % 0.00 in 0.0 W/m2 CLR
01:33 38.5 °F 30.3 °F 29.63 in NNE 5.2 mph 10.4 mph 72 % 0.00 in 0.0 W/m2 CLR
01:38 38.5 °F 29.9 °F 29.66 in North 1.6 mph 8.1 mph 71 % 0.00 in 0.0 W/m2 CLR
01:43 38.5 °F 29.9 °F 29.66 in NNE 5.7 mph 8.1 mph 71 % 0.00 in 0.0 W/m2 CLR
01:48 38.4 °F 29.8 °F 29.64 in North 6.6 mph 8.1 mph 71 % 0.00 in 0.0 W/m2 CLR
01:53 38.4 °F 29.8 °F 29.64 in NNE 6.1 mph 9.2 mph 71 % 0.00 in 0.0 W/m2 CLR
01:58 38.3 °F 30.1 °F 29.63 in NNE 7.5 mph 9.2 mph 72 % 0.00 in 0.0 W/m2 CLR
02:04 38.0 °F 30.1 °F 29.63 in NNE 3.9 mph 10.4 mph 73 % 0.00 in 0.0 W/m2 CLR
02:09 37.3 °F 29.8 °F 29.63 in NNE 7.6 mph 11.5 mph 74 % 0.00 in 0.0 W/m2 CLR
02:14 36.4 °F 29.9 °F 29.62 in NNE 9.5 mph 11.0 mph 77 % 0.00 in 0.0 W/m2 CLR
02:19 35.5 °F 29.6 °F 29.62 in NNE 5.8 mph 9.2 mph 79 % 0.00 in 0.0 W/m2 CLR
02:24 34.9 °F 29.7 °F 29.63 in NNE 0.7 mph 4.6 mph 81 % 0.00 in 0.0 W/m2 CLR
02:29 34.5 °F 29.9 °F 29.63 in NNE 0.9 mph 3.0 mph 83 % 0.01 in 0.0 W/m2 RA
02:34 34.2 °F 29.9 °F 29.62 in NNE 4.2 mph 8.1 mph 84 % 0.01 in 0.0 W/m2 RA
02:39 34.0 °F 30.0 °F 29.62 in North 2.9 mph 8.1 mph 85 % 0.01 in 0.0 W/m2 CLR
02:44 33.8 °F 30.1 °F 29.62 in NNE 4.2 mph 5.0 mph 86 % 0.01 in 0.0 W/m2 CLR
02:49 33.6 °F 30.1 °F 29.62 in NNE 5.3 mph 8.1 mph 87 % 0.01 in 0.0 W/m2 CLR
02:54 33.4 °F 29.9 °F 29.61 in NE 7.3 mph 10.4 mph 87 % 0.01 in 0.0 W/m2 CLR
02:59 33.2 °F 30.0 °F 29.61 in NNE 3.3 mph 8.1 mph 88 % 0.01 in 0.0 W/m2 CLR
03:04 33.1 °F 29.9 °F 29.61 in North 2.1 mph 3.5 mph 88 % 0.01 in 0.0 W/m2 CLR
03:09 32.9 °F 30.0 °F 29.61 in NNE 5.6 mph 8.1 mph 89 % 0.01 in 0.0 W/m2 CLR
03:14 32.9 °F 30.0 °F 29.61 in NNE 5.2 mph 8.1 mph 89 % 0.01 in 0.0 W/m2 CLR
03:19 32.8 °F 29.9 °F 29.60 in NNE 5.8 mph 10.4 mph 89 % 0.01 in 0.0 W/m2 CLR
03:24 32.7 °F 30.1 °F 29.59 in North 6.9 mph 10.4 mph 90 % 0.01 in 0.0 W/m2 CLR
03:29 32.6 °F 30.0 °F 29.60 in NNE 7.0 mph 11.5 mph 90 % 0.00 in 0.0 W/m2 CLR
03:34 32.6 °F 30.0 °F 29.61 in NNE 2.6 mph 4.0 mph 90 % 0.00 in 0.0 W/m2 CLR
03:39 32.6 °F 30.0 °F 29.60 in NNE 2.6 mph 3.5 mph 90 % 0.00 in 0.0 W/m2 CLR
03:44 32.6 °F 30.0 °F 29.60 in NNE 3.9 mph 5.0 mph 90 % 0.00 in 0.0 W/m2 CLR
03:49 32.5 °F 29.9 °F 29.59 in NNE 6.0 mph 10.4 mph 90 % 0.00 in 0.0 W/m2 CLR
03:54 32.5 °F 30.2 °F 29.60 in NNE 3.4 mph 5.8 mph 91 % 0.00 in 0.0 W/m2 CLR
03:59 32.5 °F 30.2 °F 29.61 in NNE 4.0 mph 8.1 mph 91 % 0.00 in 0.0 W/m2 CLR
04:04 32.5 °F 30.2 °F 29.60 in NNW 3.3 mph 5.8 mph 91 % 0.00 in 0.0 W/m2 CLR
04:09 32.4 °F 30.1 °F 29.60 in North 3.2 mph 8.1 mph 91 % 0.00 in 0.0 W/m2 CLR
04:14 32.3 °F 30.0 °F 29.61 in North 0.8 mph 4.0 mph 91 % 0.00 in 0.0 W/m2 CLR
04:19 32.3 °F 30.0 °F 29.62 in North 2.7 mph 8.1 mph 91 % 0.00 in 0.0 W/m2 CLR
04:24 32.2 °F 29.9 °F 29.62 in NE 4.9 mph 11.5 mph 91 % 0.00 in 0.0 W/m2 CLR
04:29 32.1 °F 30.0 °F 29.62 in North 4.3 mph 5.8 mph 92 % 0.00 in 0.0 W/m2 CLR
04:34 32.0 °F 29.9 °F 29.62 in NNE 2.3 mph 4.6 mph 92 % 0.00 in 0.0 W/m2 CLR
04:39 31.9 °F 29.8 °F 29.63 in North 3.5 mph 8.0 mph 92 % 0.00 in 0.0 W/m2 CLR
04:44 31.7 °F 29.6 °F 29.63 in NNE 7.9 mph 11.5 mph 92 % 0.00 in 0.0 W/m2 CLR
04:49 31.5 °F 29.4 °F 29.63 in NNE 2.6 mph 6.9 mph 92 % 0.00 in 0.0 W/m2 CLR
04:54 31.4 °F 29.3 °F 29.62 in NNE 0.6 mph 1.2 mph 92 % 0.00 in 0.0 W/m2 CLR
04:59 31.4 °F 29.3 °F 29.62 in NNE 0.7 mph 4.0 mph 92 % 0.00 in 0.0 W/m2 CLR
05:04 31.3 °F 29.2 °F 29.62 in NNE 1.4 mph 3.5 mph 92 % 0.00 in 0.0 W/m2 CLR
05:09 31.2 °F 29.1 °F 29.62 in NNE 2.8 mph 3.5 mph 92 % 0.00 in 0.0 W/m2 CLR
05:14 31.1 °F 29.0 °F 29.63 in NNE 4.0 mph 8.1 mph 92 % 0.00 in 0.0 W/m2 CLR
05:19 31.0 °F 28.9 °F 29.63 in NNE 3.1 mph 4.6 mph 92 % 0.00 in 0.0 W/m2 CLR
05:24 30.8 °F 28.8 °F 29.62 in North 6.5 mph 10.4 mph 92 % 0.00 in 0.0 W/m2 CLR
05:29 30.6 °F 28.6 °F 29.62 in North 6.0 mph 11.0 mph 92 % 0.00 in 0.0 W/m2 CLR
05:34 30.5 °F 28.5 °F 29.62 in NNE 8.4 mph 11.5 mph 92 % 0.00 in 0.0 W/m2 CLR
05:39 30.3 °F 28.3 °F 29.62 in North 4.7 mph 8.1 mph 92 % 0.00 in 0.0 W/m2 CLR
05:44 30.2 °F 28.4 °F 29.62 in North 2.8 mph 8.1 mph 93 % 0.00 in 0.0 W/m2 CLR
05:49 30.2 °F 28.4 °F 29.62 in North 8.1 mph 10.4 mph 93 % 0.00 in 0.0 W/m2 CLR
05:54 30.1 °F 28.3 °F 29.62 in NNE 6.1 mph 8.1 mph 93 % 0.00 in 0.0 W/m2 CLR
06:00 30.0 °F 28.2 °F 29.62 in North 1.4 mph 3.5 mph 93 % 0.00 in 0.0 W/m2 CLR
06:05 29.9 °F 28.1 °F 29.62 in NE 8.2 mph 11.5 mph 93 % 0.00 in 0.0 W/m2 CLR
06:10 29.6 °F 27.8 °F 29.63 in NNE 7.8 mph 12.0 mph 93 % 0.00 in 0.0 W/m2 CLR
06:15 29.4 °F 27.6 °F 29.63 in NNW 6.4 mph 10.4 mph 93 % 0.00 in 0.0 W/m2 CLR
06:20 29.3 °F 27.5 °F 29.63 in North 4.6 mph 11.5 mph 93 % 0.00 in 0.0 W/m2 CLR
06:25 29.1 °F 27.3 °F 29.64 in NNW 3.7 mph 11.5 mph 93 % 0.00 in 0.0 W/m2 CLR
06:30 28.9 °F 27.1 °F 29.65 in North 7.3 mph 11.0 mph 93 % 0.00 in 0.0 W/m2 CLR
06:35 28.8 °F 27.0 °F 29.65 in North 6.0 mph 17.0 mph 93 % 0.00 in 0.0 W/m2 CLR
06:40 28.6 °F 26.8 °F 29.65 in North 6.0 mph 13.0 mph 93 % 0.00 in 0.0 W/m2 CLR
06:45 28.5 °F 26.7 °F 29.64 in NNE 5.9 mph 11.5 mph 93 % 0.00 in 0.0 W/m2 CLR
06:50 28.4 °F 26.6 °F 29.64 in NNE 5.5 mph 11.5 mph 93 % 0.00 in 0.0 W/m2 CLR
06:55 28.2 °F 26.4 °F 29.65 in NNE 6.9 mph 10.4 mph 93 % 0.00 in 0.0 W/m2 CLR
07:00 28.2 °F 26.4 °F 29.64 in North 5.3 mph 5.3 mph 93 % 0.00 in 0.0 W/m2 CLR
07:05 28.1 °F 26.3 °F 29.65 in NNE 5.6 mph 11.5 mph 93 % 0.00 in 0.0 W/m2 CLR
07:10 27.8 °F 26.0 °F 29.66 in North 7.0 mph 11.5 mph 93 % 0.00 in 0.0 W/m2 CLR
07:15 27.6 °F 25.8 °F 29.65 in NNE 8.9 mph 11.5 mph 93 % 0.00 in 0.0 W/m2 CLR
07:20 27.3 °F 25.5 °F 29.65 in North 4.2 mph 8.1 mph 93 % 0.00 in 0.0 W/m2 CLR
07:25 27.3 °F 25.5 °F 29.65 in NNE 6.3 mph 11.5 mph 93 % 0.00 in 0.0 W/m2 CLR
07:30 27.1 °F 25.3 °F 29.67 in North 6.0 mph 9.2 mph 93 % 0.00 in 0.0 W/m2 CLR
07:35 26.9 °F 25.1 °F 29.67 in NNW 4.4 mph 10.4 mph 93 % 0.00 in 0.0 W/m2 CLR
07:40 26.8 °F 25.0 °F 29.67 in North 2.4 mph 5.0 mph 93 % 0.00 in 0.0 W/m2 CLR
07:45 26.8 °F 25.0 °F 29.66 in North 7.2 mph 11.5 mph 93 % 0.00 in 0.0 W/m2 CLR
07:50 26.7 °F 24.9 °F 29.67 in NNE 7.5 mph 11.5 mph 93 % 0.00 in 0.0 W/m2 OVC
07:55 26.6 °F 24.8 °F 29.68 in North 7.4 mph 11.5 mph 93 % 0.00 in 5.0 W/m2 OVC
08:00 26.5 °F 24.8 °F 29.67 in North 4.2 mph 8.1 mph 93 % 0.00 in 5.0 W/m2 OVC
08:05 26.5 °F 24.8 °F 29.67 in NE 3.6 mph 9.2 mph 93 % 0.00 in 7.0 W/m2 OVC
08:10 26.5 °F 24.8 °F 29.67 in North 0.4 mph 9.0 mph 93 % 0.00 in 11.0 W/m2 OVC
08:15 26.5 °F 24.5 °F 29.67 in North 3.5 mph 11.5 mph 92 % 0.00 in 11.0 W/m2 OVC
08:20 26.5 °F 24.5 °F 29.67 in North 5.0 mph 10.4 mph 92 % 0.00 in 11.0 W/m2 OVC
08:25 26.4 °F 24.4 °F 29.67 in NNE 4.4 mph 10.4 mph 92 % 0.00 in 16.0 W/m2 OVC
08:30 26.4 °F 24.4 °F 29.66 in NNW 2.2 mph 3.5 mph 92 % 0.00 in 18.0 W/m2 OVC
08:35 26.5 °F 24.5 °F 29.68 in NNW 2.6 mph 8.1 mph 92 % 0.00 in 18.0 W/m2 OVC
08:40 26.6 °F 24.8 °F 29.68 in NNW 7.0 mph 14.0 mph 93 % 0.00 in 21.0 W/m2 OVC
08:45 26.5 °F 24.5 °F 29.67 in NNW 5.5 mph 9.2 mph 92 % 0.00 in 23.0 W/m2 OVC
08:50 26.6 °F 24.6 °F 29.67 in NNW 6.9 mph 11.5 mph 92 % 0.00 in 26.0 W/m2 OVC
08:55 26.6 °F 24.6 °F 29.67 in NNW 6.3 mph 11.5 mph 92 % 0.00 in 30.0 W/m2 OVC
09:00 26.4 °F 24.4 °F 29.67 in NNW 5.4 mph 11.5 mph 92 % 0.00 in 33.0 W/m2 OVC
09:05 26.3 °F 24.0 °F 29.68 in NNW 7.1 mph 10.4 mph 91 % 0.00 in 28.0 W/m2 OVC
09:10 26.2 °F 23.9 °F 29.68 in NW 7.1 mph 14.0 mph 91 % 0.00 in 23.0 W/m2 OVC
09:15 26.1 °F 23.8 °F 29.68 in North 6.6 mph 9.0 mph 91 % 0.00 in 28.0 W/m2 OVC
09:20 26.1 °F 23.8 °F 29.68 in NNW 8.7 mph 11.5 mph 91 % 0.00 in 30.0 W/m2 OVC
09:25 26.2 °F 23.7 °F 29.69 in NNW 8.6 mph 13.0 mph 90 % 0.00 in 40.0 W/m2 OVC
09:30 26.3 °F 23.5 °F 29.69 in NNW 10.4 mph 15.0 mph 89 % 0.00 in 69.0 W/m2 OVC
09:36 26.5 °F 23.7 °F 29.69 in NNW 11.0 mph 16.1 mph 89 % 0.00 in 70.0 W/m2 OVC
09:41 27.0 °F 23.9 °F 29.69 in NW 7.0 mph 9.2 mph 88 % 0.00 in 63.0 W/m2 OVC
09:46 26.9 °F 23.5 °F 29.70 in NNW 10.9 mph 11.5 mph 87 % 0.00 in 79.0 W/m2 OVC
09:51 26.8 °F 22.9 °F 29.70 in NNW 11.1 mph 13.8 mph 85 % 0.00 in 97.0 W/m2 OVC
09:56 26.9 °F 23.0 °F 29.70 in NW 8.7 mph 9.2 mph 85 % 0.00 in 88.0 W/m2 OVC
10:01 27.2 °F 23.0 °F 29.70 in NW 6.4 mph 9.0 mph 84 % 0.00 in 91.0 W/m2 OVC
10:06 27.3 °F 22.5 °F 29.70 in NNW 7.7 mph 11.5 mph 82 % 0.00 in 118.0 W/m2 BKN
10:11 27.7 °F 22.6 °F 29.70 in NNW 10.1 mph 13.8 mph 81 % 0.00 in 130.0 W/m2 BKN
10:16 27.7 °F 22.3 °F 29.70 in NNW 10.2 mph 15.0 mph 80 % 0.00 in 125.0 W/m2 BKN
10:21 27.8 °F 22.4 °F 29.71 in NNW 10.1 mph 15.0 mph 80 % 0.00 in 128.0 W/m2 BKN
10:26 27.9 °F 22.2 °F 29.72 in NNW 9.9 mph 15.0 mph 79 % 0.00 in 135.0 W/m2 BKN
10:31 27.8 °F 21.8 °F 29.72 in NW 10.9 mph 18.4 mph 78 % 0.00 in 139.0 W/m2 BKN
10:36 27.9 °F 21.9 °F 29.72 in NNW 12.5 mph 17.3 mph 78 % 0.00 in 137.0 W/m2 BKN
10:41 28.0 °F 21.7 °F 29.73 in NW 9.6 mph 15.0 mph 77 % 0.00 in 158.0 W/m2 BKN
10:46 28.2 °F 21.9 °F 29.73 in NW 10.9 mph 16.1 mph 77 % 0.00 in 148.0 W/m2 BKN
10:51 28.0 °F 21.4 °F 29.72 in NNW 8.7 mph 11.5 mph 76 % 0.00 in 139.0 W/m2 BKN
10:56 27.7 °F 21.1 °F 29.72 in NNW 12.7 mph 21.9 mph 76 % 0.00 in 148.0 W/m2 BKN
11:01 27.5 °F 20.9 °F 29.73 in NNW 11.9 mph 18.4 mph 76 % 0.00 in 181.0 W/m2 BKN
11:06 27.7 °F 20.8 °F 29.73 in NNW 12.5 mph 20.0 mph 75 % 0.00 in 227.0 W/m2 BKN
11:11 27.7 °F 20.5 °F 29.72 in NW 11.5 mph 16.0 mph 74 % 0.00 in 174.0 W/m2 BKN
11:16 27.3 °F 20.1 °F 29.73 in NW 15.2 mph 20.7 mph 74 % 0.00 in 192.0 W/m2 BKN
11:21 27.5 °F 20.6 °F 29.73 in NW 14.2 mph 19.6 mph 75 % 0.00 in 253.0 W/m2 SCT
11:26 27.6 °F 20.4 °F 29.72 in NNW 7.5 mph 17.0 mph 74 % 0.00 in 243.0 W/m2 SCT
11:31 27.5 °F 20.0 °F 29.72 in NNW 12.3 mph 17.3 mph 73 % 0.00 in 246.0 W/m2 SCT
11:36 27.4 °F 19.6 °F 29.72 in NNW 14.0 mph 19.6 mph 72 % 0.00 in 253.0 W/m2 SCT
11:41 27.5 °F 19.7 °F 29.72 in NW 12.6 mph 18.4 mph 72 % 0.00 in 276.0 W/m2 SCT
11:46 27.0 °F 18.8 °F 29.72 in NW 8.5 mph 13.8 mph 71 % 0.00 in 95.0 W/m2 OVC
11:51 26.7 °F 18.9 °F 29.72 in NNW 11.2 mph 16.1 mph 72 % 0.00 in 95.0 W/m2 OVC
11:56 26.7 °F 19.2 °F 29.72 in NW 16.5 mph 24.0 mph 73 % 0.01 in 283.0 W/m2 RA
12:01 26.7 °F 19.5 °F 29.72 in WNW 13.0 mph 25.3 mph 74 % 0.01 in 149.0 W/m2 RA
12:06 25.9 °F 18.7 °F 29.72 in NW 10.9 mph 17.3 mph 74 % 0.01 in 181.0 W/m2 BKN
12:11 26.1 °F 18.9 °F 29.72 in NW 12.7 mph 21.9 mph 74 % 0.01 in 297.0 W/m2 SCT
12:16 26.3 °F 18.8 °F 29.72 in NNW 12.1 mph 16.0 mph 73 % 0.01 in 98.0 W/m2 BKN
12:21 26.3 °F 18.8 °F 29.72 in WNW 14.9 mph 18.4 mph 73 % 0.01 in 297.0 W/m2 BKN
12:26 26.7 °F 19.2 °F 29.72 in NW 14.0 mph 18.4 mph 73 % 0.01 in 327.0 W/m2 SCT
12:31 26.9 °F 19.4 °F 29.72 in NW 16.1 mph 21.9 mph 73 % 0.01 in 313.0 W/m2 SCT
12:36 26.4 °F 18.6 °F 29.72 in NW 14.0 mph 20.7 mph 72 % 0.01 in 220.0 W/m2 SCT
12:41 26.0 °F 18.5 °F 29.72 in NNW 12.0 mph 16.0 mph 73 % 0.01 in 134.0 W/m2 BKN
12:47 26.2 °F 18.7 °F 29.73 in NW 10.1 mph 11.5 mph 73 % 0.01 in 130.0 W/m2 OVC
12:52 25.9 °F 18.4 °F 29.73 in NW 15.5 mph 24.0 mph 73 % 0.01 in 162.0 W/m2 OVC
12:57 25.6 °F 18.1 °F 29.73 in North 15.8 mph 24.0 mph 73 % 0.00 in 67.0 W/m2 OVC
13:02 24.9 °F 17.8 °F 29.73 in NW 11.5 mph 21.9 mph 74 % 0.00 in 114.0 W/m2 OVC
13:07 25.2 °F 17.4 °F 29.73 in WNW 13.2 mph 23.0 mph 72 % 0.00 in 113.0 W/m2 BKN
13:12 25.0 °F 16.9 °F 29.74 in NW 16.6 mph 24.2 mph 71 % 0.01 in 320.0 W/m2 RA
13:17 25.1 °F 16.7 °F 29.74 in North 16.2 mph 26.5 mph 70 % 0.01 in 90.0 W/m2 RA
13:22 24.6 °F 16.2 °F 29.74 in NNW 7.4 mph 13.8 mph 70 % 0.01 in 237.0 W/m2 SCT
13:27 24.9 °F 16.8 °F 29.74 in WNW 12.5 mph 17.3 mph 71 % 0.01 in 352.0 W/m2 FEW
13:32 25.4 °F 16.6 °F 29.75 in NW 9.1 mph 13.0 mph 69 % 0.01 in 98.0 W/m2 OVC
13:37 24.8 °F 15.7 °F 29.75 in WNW 10.5 mph 16.1 mph 68 % 0.01 in 74.0 W/m2 OVC
13:42 24.1 °F 15.1 °F 29.75 in NW 18.3 mph 24.2 mph 68 % 0.01 in 95.0 W/m2 OVC
13:47 24.0 °F 15.3 °F 29.75 in North 12.1 mph 21.9 mph 69 % 0.01 in 229.0 W/m2 BKN
13:52 25.0 °F 16.3 °F 29.75 in NW 13.1 mph 24.2 mph 69 % 0.01 in 346.0 W/m2 FEW
13:57 25.3 °F 16.2 °F 29.75 in WNW 14.8 mph 20.7 mph 68 % 0.01 in 348.0 W/m2 FEW
14:02 24.9 °F 15.5 °F 29.76 in NW 13.2 mph 19.6 mph 67 % 0.01 in 105.0 W/m2 BKN
14:07 24.1 °F 15.1 °F 29.76 in North 17.3 mph 21.9 mph 68 % 0.01 in 65.0 W/m2 OVC
14:12 23.6 °F 14.9 °F 29.76 in NW 13.6 mph 20.7 mph 69 % 0.00 in 72.0 W/m2 OVC
14:17 23.6 °F 14.9 °F 29.77 in NNE 16.2 mph 20.7 mph 69 % 0.00 in 105.0 W/m2 OVC
14:22 23.7 °F 15.0 °F 29.77 in NW 12.4 mph 18.4 mph 69 % 0.00 in 74.0 W/m2 OVC
14:27 23.5 °F 14.5 °F 29.77 in NNW 12.7 mph 18.4 mph 68 % 0.00 in 74.0 W/m2 OVC
14:32 23.6 °F 14.2 °F 29.77 in NNW 13.9 mph 19.6 mph 67 % 0.00 in 88.0 W/m2 OVC
14:37 24.7 °F 14.9 °F 29.77 in NW 12.5 mph 20.7 mph 66 % 0.00 in 404.0 W/m2 CLR
14:42 25.4 °F 15.3 °F 29.78 in NNW 12.0 mph 15.0 mph 65 % 0.00 in 401.0 W/m2 CLR
14:47 25.3 °F 14.8 °F 29.78 in NNW 13.4 mph 19.6 mph 64 % 0.00 in 422.0 W/m2 CLR
14:52 25.6 °F 14.7 °F 29.79 in NNW 15.2 mph 20.7 mph 63 % 0.00 in 397.0 W/m2 CLR
14:57 25.8 °F 14.9 °F 29.79 in North 11.3 mph 17.3 mph 63 % 0.00 in 425.0 W/m2 CLR
15:02 25.8 °F 14.6 °F 29.79 in NW 14.4 mph 21.9 mph 62 % 0.00 in 429.0 W/m2 CLR
15:07 25.9 °F 15.0 °F 29.79 in NNW 13.1 mph 18.4 mph 63 % 0.00 in 427.0 W/m2 CLR
15:12 26.0 °F 14.4 °F 29.80 in NNW 13.1 mph 17.3 mph 61 % 0.00 in 403.0 W/m2 CLR
15:17 25.7 °F 14.1 °F 29.80 in NW 11.2 mph 16.1 mph 61 % 0.00 in 410.0 W/m2 CLR
15:22 25.6 °F 13.6 °F 29.81 in NW 14.2 mph 19.6 mph 60 % 0.00 in 410.0 W/m2 CLR
15:27 25.5 °F 13.5 °F 29.81 in NW 8.7 mph 17.3 mph 60 % 0.00 in 418.0 W/m2 CLR
15:29 25.5 °F 13.1 °F 29.81 in NW 13.0 mph 18.0 mph 59 % 0.00 in 281.0 W/m2 RA
15:35 24.9 °F 12.6 °F 29.81 in NW 21.0 mph 21.0 mph 59 % 0.00 in 72.0 W/m2 RA
15:36 24.8 °F 12.5 °F 29.81 in WSW 21.0 mph 25.0 mph 59 % 0.00 in 72.0 W/m2 RA
15:41 24.5 °F 12.2 °F 29.82 in NW 13.0 mph 19.0 mph 59 % 0.00 in 62.0 W/m2 RA
15:46 24.6 °F 12.7 °F 29.82 in NW 14.0 mph 19.6 mph 60 % 0.00 in 357.0 W/m2 CLR
15:51 24.7 °F 12.8 °F 29.82 in NW 14.7 mph 20.7 mph 60 % 0.00 in 415.0 W/m2 CLR
15:56 24.8 °F 12.5 °F 29.82 in NW 15.9 mph 20.7 mph 59 % 0.00 in 434.0 W/m2 CLR
16:01 24.9 °F 12.6 °F 29.83 in NW 8.3 mph 16.1 mph 59 % 0.00 in 171.0 W/m2 CLR
16:06 24.9 °F 12.6 °F 29.83 in NNW 15.8 mph 20.7 mph 59 % 0.00 in 388.0 W/m2 CLR
16:11 25.0 °F 12.3 °F 29.83 in NW 13.8 mph 20.7 mph 58 % 0.00 in 383.0 W/m2 CLR
16:16 24.5 °F 12.6 °F 29.84 in WNW 14.1 mph 24.2 mph 60 % 0.00 in 371.0 W/m2 CLR
16:21 24.4 °F 12.9 °F 29.84 in NW 7.7 mph 11.5 mph 61 % 0.00 in 290.0 W/m2 CLR
16:26 24.4 °F 12.5 °F 29.84 in NW 12.5 mph 18.4 mph 60 % 0.00 in 223.0 W/m2 CLR
16:31 24.0 °F 12.1 °F 29.85 in NW 11.3 mph 17.3 mph 60 % 0.00 in 216.0 W/m2 CLR
16:36 23.9 °F 12.4 °F 29.85 in NW 16.4 mph 23.0 mph 61 % 0.00 in 104.0 W/m2 CLR
16:41 23.8 °F 11.5 °F 29.85 in NW 11.4 mph 19.6 mph 59 % 0.00 in 190.0 W/m2 CLR
16:46 23.9 °F 10.9 °F 29.86 in NW 15.8 mph 21.9 mph 57 % 0.00 in 76.0 W/m2 CLR
16:51 23.6 °F 11.4 °F 29.86 in WNW 16.7 mph 23.0 mph 59 % 0.00 in 77.0 W/m2 CLR
16:56 23.4 °F 11.2 °F 29.86 in NW 15.9 mph 23.0 mph 59 % 0.00 in 53.0 W/m2 CLR
17:01 23.3 °F 11.1 °F 29.87 in NW 13.6 mph 20.7 mph 59 % 0.00 in 90.0 W/m2 CLR
17:06 23.2 °F 11.4 °F 29.87 in WNW 15.6 mph 26.5 mph 60 % 0.00 in 60.0 W/m2 CLR
17:11 23.1 °F 10.9 °F 29.87 in NW 19.0 mph 25.0 mph 59 % 0.00 in 19.0 W/m2 CLR
17:16 23.0 °F 10.8 °F 29.88 in WNW 12.3 mph 16.1 mph 59 % 0.00 in 14.0 W/m2 CLR
17:21 23.0 °F 10.4 °F 29.89 in NNW 13.5 mph 24.0 mph 58 % 0.00 in 11.0 W/m2 CLR
17:26 22.7 °F 10.9 °F 29.89 in NW 10.2 mph 17.3 mph 60 % 0.00 in 7.0 W/m2 CLR
17:31 22.7 °F 9.7 °F 29.90 in WNW 12.1 mph 18.4 mph 57 % 0.00 in 5.0 W/m2 CLR
17:36 22.6 °F 9.6 °F 29.90 in WNW 6.4 mph 17.3 mph 57 % 0.00 in 0.0 W/m2 CLR
17:41 22.5 °F 9.1 °F 29.91 in NW 9.8 mph 16.1 mph 56 % 0.00 in 0.0 W/m2 CLR
17:46 22.4 °F 8.7 °F 29.91 in NW 6.3 mph 11.5 mph 55 % 0.00 in 0.0 W/m2 CLR
17:55 22.1 °F 8.4 °F 29.92 in NNW 8.1 mph 11.5 mph 55 % 0.00 in 0.0 W/m2 CLR
18:00 21.9 °F 8.2 °F 29.92 in NW 6.5 mph 12.0 mph 55 % 0.00 in 0.0 W/m2 CLR
18:05 21.9 °F 8.6 °F 29.92 in NNW 15.3 mph 19.6 mph 56 % 0.00 in 0.0 W/m2 CLR
18:10 21.9 °F 8.6 °F 29.93 in NW 10.5 mph 19.6 mph 56 % 0.00 in 0.0 W/m2 CLR
18:15 21.8 °F 8.5 °F 29.93 in NW 6.5 mph 11.5 mph 56 % 0.00 in 0.0 W/m2 CLR
18:20 21.7 °F 8.4 °F 29.93 in WNW 3.9 mph 9.2 mph 56 % 0.00 in 0.0 W/m2 CLR
18:26 21.5 °F 8.2 °F 29.94 in WNW 9.7 mph 13.0 mph 56 % 0.00 in 0.0 W/m2 CLR
18:31 21.6 °F 7.5 °F 29.94 in NW 10.6 mph 13.8 mph 54 % 0.00 in 0.0 W/m2 CLR
18:36 21.6 °F 7.5 °F 29.95 in NW 7.1 mph 13.8 mph 54 % 0.00 in 0.0 W/m2 CLR
18:41 21.5 °F 7.0 °F 29.95 in NW 17.8 mph 20.7 mph 53 % 0.00 in 0.0 W/m2 CLR
18:46 21.4 °F 8.1 °F 29.96 in NW 13.2 mph 27.0 mph 56 % 0.00 in 0.0 W/m2 CLR
18:51 21.2 °F 8.7 °F 29.96 in WNW 11.6 mph 19.6 mph 58 % 0.00 in 0.0 W/m2 CLR
18:56 21.3 °F 7.2 °F 29.97 in West 9.0 mph 12.7 mph 54 % 0.00 in 0.0 W/m2 CLR
19:01 21.4 °F 6.9 °F 29.97 in NW 23.1 mph 27.6 mph 53 % 0.00 in 0.0 W/m2 CLR
19:06 21.1 °F 8.6 °F 29.97 in WNW 16.1 mph 23.0 mph 58 % 0.00 in 0.0 W/m2 CLR
19:11 20.8 °F 9.5 °F 29.98 in WNW 13.1 mph 20.7 mph 61 % 0.00 in 0.0 W/m2 CLR
19:16 20.6 °F 8.9 °F 29.98 in NW 12.8 mph 17.0 mph 60 % 0.00 in 0.0 W/m2 CLR
19:21 20.6 °F 8.1 °F 29.99 in North 11.1 mph 18.4 mph 58 % 0.00 in 0.0 W/m2 CLR
19:26 20.7 °F 7.1 °F 29.99 in North 6.9 mph 16.1 mph 55 % 0.00 in 0.0 W/m2 CLR
19:31 20.6 °F 6.6 °F 30.00 in West 8.9 mph 19.6 mph 54 % 0.00 in 0.0 W/m2 CLR
19:36 20.5 °F 6.9 °F 30.00 in NW 7.9 mph 15.0 mph 55 % 0.00 in 0.0 W/m2 CLR
19:41 20.4 °F 7.2 °F 30.00 in WNW 12.1 mph 16.1 mph 56 % 0.00 in 0.0 W/m2 CLR
19:46 20.4 °F 6.4 °F 30.01 in NW 8.4 mph 19.6 mph 54 % 0.00 in 0.0 W/m2 CLR
19:51 20.4 °F 6.0 °F 30.01 in NNW 10.5 mph 19.0 mph 53 % 0.00 in 0.0 W/m2 CLR
19:56 20.4 °F 5.5 °F 30.01 in NW 14.8 mph 20.7 mph 52 % 0.00 in 0.0 W/m2 CLR
20:01 20.4 °F 5.5 °F 30.02 in WNW 9.4 mph 11.5 mph 52 % 0.00 in 0.0 W/m2 CLR
20:07 20.2 °F 5.4 °F 30.02 in NW 7.6 mph 16.1 mph 52 % 0.00 in 0.0 W/m2 CLR
20:12 20.1 °F 5.3 °F 30.03 in NW 11.3 mph 16.1 mph 52 % 0.00 in 0.0 W/m2 CLR
20:17 20.1 °F 4.8 °F 30.03 in WNW 4.9 mph 11.5 mph 51 % 0.00 in 0.0 W/m2 CLR
20:22 20.0 °F 5.2 °F 30.03 in NW 9.6 mph 13.8 mph 52 % 0.00 in 0.0 W/m2 CLR
20:27 20.0 °F 5.2 °F 30.04 in NW 5.6 mph 13.8 mph 52 % 0.00 in 0.0 W/m2 CLR
20:37 20.0 °F 5.6 °F 30.05 in NNW 10.4 mph 16.1 mph 53 % 0.00 in 0.0 W/m2 CLR
20:46 19.9 °F 5.5 °F 30.05 in NW 5.3 mph 12.7 mph 53 % 0.00 in 0.0 W/m2 CLR
20:51 19.8 °F 5.4 °F 30.06 in NNW 13.0 mph 17.0 mph 53 % 0.00 in 0.0 W/m2 CLR
20:56 19.9 °F 5.5 °F 30.06 in NW 9.9 mph 16.1 mph 53 % 0.00 in 0.0 W/m2 CLR
21:01 19.8 °F 5.4 °F 30.06 in WNW 3.3 mph 11.0 mph 53 % 0.00 in 0.0 W/m2 CLR
21:06 19.9 °F 5.5 °F 30.06 in WNW 5.7 mph 9.2 mph 53 % 0.00 in 0.0 W/m2 CLR
21:11 19.8 °F 5.4 °F 30.07 in West 8.5 mph 13.8 mph 53 % 0.00 in 0.0 W/m2 CLR
21:16 19.8 °F 5.4 °F 30.07 in WNW 8.1 mph 13.8 mph 53 % 0.00 in 0.0 W/m2 CLR
21:21 19.7 °F 5.7 °F 30.07 in NW 9.0 mph 14.0 mph 54 % 0.00 in 0.0 W/m2 CLR
21:26 19.7 °F 5.3 °F 30.08 in WNW 4.9 mph 9.0 mph 53 % 0.00 in 0.0 W/m2 CLR
21:31 19.6 °F 5.6 °F 30.08 in WNW 7.5 mph 12.0 mph 54 % 0.00 in 0.0 W/m2 CLR
21:36 19.6 °F 5.6 °F 30.08 in WNW 4.2 mph 7.0 mph 54 % 0.00 in 0.0 W/m2 CLR
21:39 19.5 °F 5.5 °F 30.08 in NW 3.7 mph 4.6 mph 54 % 0.00 in 0.0 W/m2 CLR
21:41 19.4 °F 5.4 °F 30.09 in NW 8.3 mph 12.0 mph 54 % 0.00 in 0.0 W/m2 CLR
21:46 19.5 °F 5.5 °F 30.09 in WNW 6.7 mph 12.7 mph 54 % 0.00 in 0.0 W/m2 CLR
21:51 19.4 °F 5.8 °F 30.09 in West 3.3 mph 8.1 mph 55 % 0.00 in 0.0 W/m2 CLR
21:56 19.4 °F 5.8 °F 30.10 in NW 5.1 mph 10.4 mph 55 % 0.00 in 0.0 W/m2 CLR
22:01 19.4 °F 5.8 °F 30.10 in WNW 6.6 mph 12.7 mph 55 % 0.00 in 0.0 W/m2 CLR
22:06 19.4 °F 5.8 °F 30.10 in West 5.2 mph 10.0 mph 55 % 0.00 in 0.0 W/m2 CLR
22:11 19.4 °F 6.2 °F 30.11 in WNW 5.6 mph 10.4 mph 56 % 0.00 in 0.0 W/m2 CLR
22:16 19.4 °F 6.2 °F 30.11 in West 1.5 mph 6.0 mph 56 % 0.00 in 0.0 W/m2 CLR
22:21 19.3 °F 6.1 °F 30.11 in West 3.1 mph 6.9 mph 56 % 0.00 in 0.0 W/m2 CLR
22:26 19.0 °F 6.3 °F 30.12 in West 0.7 mph 2.3 mph 57 % 0.00 in 0.0 W/m2 CLR
22:36 19.1 °F 6.3 °F 30.12 in WSW 4.3 mph 8.1 mph 57 % 0.00 in 0.0 W/m2 CLR
22:41 19.1 °F 6.7 °F 30.12 in West 1.7 mph 3.5 mph 58 % 0.00 in 0.0 W/m2 CLR
22:46 19.0 °F 6.6 °F 30.12 in WSW 2.7 mph 4.6 mph 58 % 0.00 in 0.0 W/m2 CLR
22:51 19.1 °F 6.7 °F 30.13 in West 2.5 mph 3.5 mph 58 % 0.00 in 0.0 W/m2 CLR
22:56 19.2 °F 6.8 °F 30.13 in West 4.0 mph 8.1 mph 58 % 0.00 in 0.0 W/m2 CLR
23:01 19.4 °F 7.0 °F 30.13 in West 3.6 mph 8.1 mph 58 % 0.00 in 0.0 W/m2 CLR
23:06 19.3 °F 6.9 °F 30.13 in West 1.3 mph 3.5 mph 58 % 0.00 in 0.0 W/m2 CLR
23:07 19.3 °F 6.9 °F 30.13 in West 2.4 mph 4.0 mph 58 % 0.00 in 0.0 W/m2 CLR
23:12 19.3 °F 6.9 °F 30.13 in West 3.5 mph 8.1 mph 58 % 0.00 in 0.0 W/m2 CLR
23:17 19.6 °F 7.2 °F 30.13 in West 6.6 mph 10.4 mph 58 % 0.00 in 0.0 W/m2 CLR
23:22 19.8 °F 7.4 °F 30.14 in West 3.4 mph 6.9 mph 58 % 0.00 in 0.0 W/m2 CLR
23:27 19.9 °F 7.5 °F 30.14 in West 3.1 mph 8.1 mph 58 % 0.00 in 0.0 W/m2 CLR
23:32 19.8 °F 7.8 °F 30.14 in WNW 3.7 mph 6.9 mph 59 % 0.00 in 0.0 W/m2 CLR
23:37 19.9 °F 7.9 °F 30.14 in WNW 6.4 mph 10.4 mph 59 % 0.00 in 0.0 W/m2 CLR
23:42 20.0 °F 8.3 °F 30.14 in West 2.9 mph 4.0 mph 60 % 0.00 in 0.0 W/m2 CLR
23:47 19.9 °F 8.2 °F 30.14 in WNW 5.0 mph 13.0 mph 60 % 0.00 in 0.0 W/m2 CLR
23:52 20.0 °F 8.7 °F 30.14 in WNW 6.0 mph 12.7 mph 61 % 0.00 in 0.0 W/m2 CLR
23:57 20.3 °F 9.0 °F 30.15 in WNW 6.5 mph 11.5 mph 61 % 0.00 in 0.0 W/m2 CLR
Air Products Campus Weather
Compliments of Weather Underground - 3.5 mb